sensor_id;sensor_type;location;lat;lon;timestamp;pressure;altitude;pressure_sealevel;temperature;humidity
26436;BME280;15351;52.408;16.826;2023-04-28T00:02:25;101339.84;;;5.01;63.29
26436;BME280;15351;52.408;16.826;2023-04-28T00:05:05;101347.58;;;4.98;63.44
26436;BME280;15351;52.408;16.826;2023-04-28T00:07:32;101346.67;;;4.96;63.74
26436;BME280;15351;52.408;16.826;2023-04-28T00:10:00;101345.55;;;4.96;63.70
26436;BME280;15351;52.408;16.826;2023-04-28T00:12:28;101346.50;;;4.95;63.60
26436;BME280;15351;52.408;16.826;2023-04-28T00:15:02;101344.80;;;4.92;63.45
26436;BME280;15351;52.408;16.826;2023-04-28T00:17:29;101343.92;;;4.90;63.68
26436;BME280;15351;52.408;16.826;2023-04-28T00:19:56;101342.37;;;4.85;63.55
26436;BME280;15351;52.408;16.826;2023-04-28T00:22:24;101346.08;;;4.83;63.74
26436;BME280;15351;52.408;16.826;2023-04-28T00:24:55;101349.52;;;4.82;64.03
26436;BME280;15351;52.408;16.826;2023-04-28T00:27:31;101343.13;;;4.80;63.94
26436;BME280;15351;52.408;16.826;2023-04-28T00:30:04;101347.75;;;4.80;63.85
26436;BME280;15351;52.408;16.826;2023-04-28T00:32:31;101347.43;;;4.79;64.02
26436;BME280;15351;52.408;16.826;2023-04-28T00:34:58;101346.58;;;4.75;63.97
26436;BME280;15351;52.408;16.826;2023-04-28T00:37:24;101344.20;;;4.71;64.01
26436;BME280;15351;52.408;16.826;2023-04-28T00:39:55;101343.70;;;4.68;64.13
26436;BME280;15351;52.408;16.826;2023-04-28T00:42:26;101346.65;;;4.69;64.17
26436;BME280;15351;52.408;16.826;2023-04-28T00:45:12;101344.13;;;4.69;64.28
26436;BME280;15351;52.408;16.826;2023-04-28T00:47:44;101343.26;;;4.69;63.97
26436;BME280;15351;52.408;16.826;2023-04-28T00:50:16;101340.00;;;4.67;63.98
26436;BME280;15351;52.408;16.826;2023-04-28T00:52:47;101338.55;;;4.63;63.99
26436;BME280;15351;52.408;16.826;2023-04-28T00:55:17;101341.34;;;4.62;64.09
26436;BME280;15351;52.408;16.826;2023-04-28T00:57:50;101342.63;;;4.63;64.08
26436;BME280;15351;52.408;16.826;2023-04-28T01:00:19;101338.88;;;4.61;64.27
26436;BME280;15351;52.408;16.826;2023-04-28T01:02:55;101338.20;;;4.61;64.15
26436;BME280;15351;52.408;16.826;2023-04-28T01:05:26;101332.20;;;4.59;64.22
26436;BME280;15351;52.408;16.826;2023-04-28T01:07:55;101334.02;;;4.56;64.15
26436;BME280;15351;52.408;16.826;2023-04-28T01:10:22;101336.40;;;4.52;64.08
26436;BME280;15351;52.408;16.826;2023-04-28T01:12:49;101333.78;;;4.49;64.33
26436;BME280;15351;52.408;16.826;2023-04-28T01:15:17;101333.92;;;4.50;64.70
26436;BME280;15351;52.408;16.826;2023-04-28T01:17:46;101329.55;;;4.49;64.61
26436;BME280;15351;52.408;16.826;2023-04-28T01:20:14;101337.45;;;4.50;64.58
26436;BME280;15351;52.408;16.826;2023-04-28T01:22:42;101333.13;;;4.49;64.43
26436;BME280;15351;52.408;16.826;2023-04-28T01:25:13;101331.39;;;4.46;64.55
26436;BME280;15351;52.408;16.826;2023-04-28T01:27:45;101334.89;;;4.42;64.62
26436;BME280;15351;52.408;16.826;2023-04-28T01:30:29;101333.81;;;4.42;64.74
26436;BME280;15351;52.408;16.826;2023-04-28T01:32:56;101337.58;;;4.42;64.65
26436;BME280;15351;52.408;16.826;2023-04-28T01:35:40;101333.15;;;4.40;64.51
26436;BME280;15351;52.408;16.826;2023-04-28T01:38:18;101334.59;;;4.39;64.56
26436;BME280;15351;52.408;16.826;2023-04-28T01:40:47;101333.02;;;4.39;64.56
26436;BME280;15351;52.408;16.826;2023-04-28T01:43:27;101331.36;;;4.37;64.51
26436;BME280;15351;52.408;16.826;2023-04-28T01:45:58;101334.86;;;4.36;64.85
26436;BME280;15351;52.408;16.826;2023-04-28T01:48:31;101331.55;;;4.35;64.89
26436;BME280;15351;52.408;16.826;2023-04-28T01:51:06;101332.98;;;4.37;64.98
26436;BME280;15351;52.408;16.826;2023-04-28T01:53:41;101326.92;;;4.37;64.95
26436;BME280;15351;52.408;16.826;2023-04-28T01:56:25;101328.94;;;4.36;64.81
26436;BME280;15351;52.408;16.826;2023-04-28T01:58:53;101328.10;;;4.33;64.98
26436;BME280;15351;52.408;16.826;2023-04-28T02:01:22;101328.34;;;4.32;65.04
26436;BME280;15351;52.408;16.826;2023-04-28T02:03:52;101330.83;;;4.33;65.22
26436;BME280;15351;52.408;16.826;2023-04-28T02:06:21;101326.96;;;4.29;65.18
26436;BME280;15351;52.408;16.826;2023-04-28T02:08:47;101329.41;;;4.32;65.24
26436;BME280;15351;52.408;16.826;2023-04-28T02:11:21;101327.46;;;4.32;65.34
26436;BME280;15351;52.408;16.826;2023-04-28T02:13:57;101324.80;;;4.32;65.24
26436;BME280;15351;52.408;16.826;2023-04-28T02:16:24;101324.83;;;4.32;65.46
26436;BME280;15351;52.408;16.826;2023-04-28T02:18:51;101324.98;;;4.32;65.45
26436;BME280;15351;52.408;16.826;2023-04-28T02:21:18;101318.55;;;4.30;65.27
26436;BME280;15351;52.408;16.826;2023-04-28T02:23:54;101318.07;;;4.30;65.23
26436;BME280;15351;52.408;16.826;2023-04-28T02:26:36;101320.04;;;4.27;65.06
26436;BME280;15351;52.408;16.826;2023-04-28T02:29:19;101324.20;;;4.22;65.25
26436;BME280;15351;52.408;16.826;2023-04-28T02:31:46;101323.16;;;4.19;65.37
26436;BME280;15351;52.408;16.826;2023-04-28T02:34:13;101321.95;;;4.19;65.39
26436;BME280;15351;52.408;16.826;2023-04-28T02:36:44;101327.25;;;4.19;65.38
26436;BME280;15351;52.408;16.826;2023-04-28T02:39:18;101326.29;;;4.18;65.23
26436;BME280;15351;52.408;16.826;2023-04-28T02:41:47;101330.45;;;4.17;65.32
26436;BME280;15351;52.408;16.826;2023-04-28T02:44:24;101328.86;;;4.12;65.28
26436;BME280;15351;52.408;16.826;2023-04-28T02:46:52;101332.08;;;4.08;65.44
26436;BME280;15351;52.408;16.826;2023-04-28T02:49:18;101332.17;;;4.06;65.60
26436;BME280;15351;52.408;16.826;2023-04-28T02:51:45;101332.17;;;4.06;65.61
26436;BME280;15351;52.408;16.826;2023-04-28T02:54:11;101330.20;;;4.06;65.57
26436;BME280;15351;52.408;16.826;2023-04-28T02:56:38;101330.63;;;4.05;65.63
26436;BME280;15351;52.408;16.826;2023-04-28T02:59:08;101329.94;;;4.03;65.56
26436;BME280;15351;52.408;16.826;2023-04-28T03:01:35;101333.39;;;3.99;65.66
26436;BME280;15351;52.408;16.826;2023-04-28T03:04:05;101334.48;;;3.99;65.85
26436;BME280;15351;52.408;16.826;2023-04-28T03:06:34;101336.81;;;3.99;65.75
26436;BME280;15351;52.408;16.826;2023-04-28T03:09:03;101334.51;;;3.99;65.68
26436;BME280;15351;52.408;16.826;2023-04-28T03:11:32;101331.09;;;3.99;65.59
26436;BME280;15351;52.408;16.826;2023-04-28T03:14:02;101324.65;;;3.97;65.66
26436;BME280;15351;52.408;16.826;2023-04-28T03:16:30;101326.52;;;3.96;65.44
26436;BME280;15351;52.408;16.826;2023-04-28T03:18:58;101327.39;;;3.96;65.74
26436;BME280;15351;52.408;16.826;2023-04-28T03:21:25;101320.81;;;3.97;65.59
26436;BME280;15351;52.408;16.826;2023-04-28T03:23:54;101324.94;;;3.96;65.63
26436;BME280;15351;52.408;16.826;2023-04-28T03:26:21;101323.31;;;3.96;65.52
26436;BME280;15351;52.408;16.826;2023-04-28T03:28:53;101322.33;;;3.93;65.45
26436;BME280;15351;52.408;16.826;2023-04-28T03:31:31;101326.60;;;3.91;65.43
26436;BME280;15351;52.408;16.826;2023-04-28T03:33:58;101326.70;;;3.89;65.71
26436;BME280;15351;52.408;16.826;2023-04-28T03:36:24;101325.20;;;3.91;65.83
26436;BME280;15351;52.408;16.826;2023-04-28T03:38:53;101324.95;;;3.92;65.74
26436;BME280;15351;52.408;16.826;2023-04-28T03:41:41;101322.82;;;3.92;65.63
26436;BME280;15351;52.408;16.826;2023-04-28T03:44:37;101322.81;;;3.92;65.61
26436;BME280;15351;52.408;16.826;2023-04-28T03:47:05;101326.23;;;3.91;65.57
26436;BME280;15351;52.408;16.826;2023-04-28T03:49:33;101325.17;;;3.91;65.77
26436;BME280;15351;52.408;16.826;2023-04-28T03:52:00;101326.96;;;3.93;65.96
26436;BME280;15351;52.408;16.826;2023-04-28T03:54:30;101321.02;;;3.94;65.85
26436;BME280;15351;52.408;16.826;2023-04-28T03:56:58;101323.57;;;3.93;65.75
26436;BME280;15351;52.408;16.826;2023-04-28T03:59:24;101324.11;;;3.93;65.69
26436;BME280;15351;52.408;16.826;2023-04-28T04:01:52;101323.17;;;3.92;65.91
26436;BME280;15351;52.408;16.826;2023-04-28T04:04:18;101326.88;;;3.92;65.92
26436;BME280;15351;52.408;16.826;2023-04-28T04:06:45;101324.64;;;3.95;66.02
26436;BME280;15351;52.408;16.826;2023-04-28T04:09:17;101321.27;;;4.00;66.14
26436;BME280;15351;52.408;16.826;2023-04-28T04:11:45;101326.77;;;4.05;66.03
26436;BME280;15351;52.408;16.826;2023-04-28T04:14:13;101327.23;;;4.08;66.12
26436;BME280;15351;52.408;16.826;2023-04-28T04:16:41;101321.55;;;4.08;66.10
26436;BME280;15351;52.408;16.826;2023-04-28T04:19:08;101317.44;;;4.06;66.21
26436;BME280;15351;52.408;16.826;2023-04-28T04:22:10;101321.30;;;4.14;66.35
26436;BME280;15351;52.408;16.826;2023-04-28T04:24:37;101320.69;;;4.19;66.40
26436;BME280;15351;52.408;16.826;2023-04-28T04:27:05;101320.32;;;4.21;66.45
26436;BME280;15351;52.408;16.826;2023-04-28T04:29:52;101325.08;;;4.22;66.55
26436;BME280;15351;52.408;16.826;2023-04-28T04:32:28;101324.71;;;4.22;66.75
26436;BME280;15351;52.408;16.826;2023-04-28T04:34:59;101320.83;;;4.26;67.12
26436;BME280;15351;52.408;16.826;2023-04-28T04:37:25;101320.02;;;4.32;67.16
26436;BME280;15351;52.408;16.826;2023-04-28T04:39:57;101321.23;;;4.37;67.22
26436;BME280;15351;52.408;16.826;2023-04-28T04:45:34;101319.66;;;4.43;67.38
26436;BME280;15351;52.408;16.826;2023-04-28T04:48:06;101314.40;;;4.49;67.67
26436;BME280;15351;52.408;16.826;2023-04-28T04:51:22;101319.02;;;4.57;67.68
26436;BME280;15351;52.408;16.826;2023-04-28T04:53:48;101311.20;;;4.62;67.67
26436;BME280;15351;52.408;16.826;2023-04-28T04:56:15;101310.11;;;4.67;67.66
26436;BME280;15351;52.408;16.826;2023-04-28T04:58:42;101313.30;;;4.72;67.80
26436;BME280;15351;52.408;16.826;2023-04-28T05:01:35;101315.63;;;4.78;68.06
26436;BME280;15351;52.408;16.826;2023-04-28T05:04:04;101314.48;;;4.86;68.25
26436;BME280;15351;52.408;16.826;2023-04-28T05:06:39;101315.45;;;4.94;68.31
26436;BME280;15351;52.408;16.826;2023-04-28T05:09:19;101318.28;;;5.01;68.42
26436;BME280;15351;52.408;16.826;2023-04-28T05:11:59;101316.64;;;5.08;68.62
26436;BME280;15351;52.408;16.826;2023-04-28T05:14:27;101315.23;;;5.16;68.88
26436;BME280;15351;52.408;16.826;2023-04-28T05:17:05;101310.59;;;5.25;69.00
26436;BME280;15351;52.408;16.826;2023-04-28T05:22:41;101303.98;;;5.45;69.03
26436;BME280;15351;52.408;16.826;2023-04-28T05:25:08;101306.17;;;5.57;69.27
26436;BME280;15351;52.408;16.826;2023-04-28T05:27:56;101308.77;;;5.73;69.51
26436;BME280;15351;52.408;16.826;2023-04-28T05:30:37;101310.11;;;5.88;69.43
26436;BME280;15351;52.408;16.826;2023-04-28T05:33:17;101299.77;;;6.03;69.37
26436;BME280;15351;52.408;16.826;2023-04-28T05:35:51;101307.02;;;6.20;69.31
26436;BME280;15351;52.408;16.826;2023-04-28T05:38:19;101302.78;;;6.34;69.17
26436;BME280;15351;52.408;16.826;2023-04-28T05:40:48;101300.44;;;6.50;68.99
26436;BME280;15351;52.408;16.826;2023-04-28T05:43:21;101300.73;;;6.66;68.74
26436;BME280;15351;52.408;16.826;2023-04-28T05:45:59;101296.70;;;6.77;68.50
26436;BME280;15351;52.408;16.826;2023-04-28T05:48:35;101295.39;;;6.87;68.26
26436;BME280;15351;52.408;16.826;2023-04-28T05:51:03;101294.33;;;6.99;68.02
26436;BME280;15351;52.408;16.826;2023-04-28T05:53:55;101294.39;;;7.10;67.65
26436;BME280;15351;52.408;16.826;2023-04-28T05:56:22;101295.13;;;7.26;67.01
26436;BME280;15351;52.408;16.826;2023-04-28T05:58:54;101290.95;;;7.38;66.53
26436;BME280;15351;52.408;16.826;2023-04-28T06:02:07;101287.41;;;7.51;66.22
26436;BME280;15351;52.408;16.826;2023-04-28T06:04:37;101286.27;;;7.60;66.02
26436;BME280;15351;52.408;16.826;2023-04-28T06:08:13;101284.99;;;7.72;65.69
26436;BME280;15351;52.408;16.826;2023-04-28T06:11:01;101281.71;;;7.88;64.85
26436;BME280;15351;52.408;16.826;2023-04-28T06:18:12;101277.91;;;8.22;63.09
26436;BME280;15351;52.408;16.826;2023-04-28T06:21:03;101270.58;;;8.35;62.81
26436;BME280;15351;52.408;16.826;2023-04-28T06:23:31;101269.30;;;8.45;62.48
26436;BME280;15351;52.408;16.826;2023-04-28T06:25:59;101268.13;;;8.55;61.94
26436;BME280;15351;52.408;16.826;2023-04-28T06:28:29;101264.77;;;8.66;61.23
26436;BME280;15351;52.408;16.826;2023-04-28T06:31:01;101267.23;;;8.75;60.52
26436;BME280;15351;52.408;16.826;2023-04-28T06:33:55;101267.98;;;8.84;60.09
26436;BME280;15351;52.408;16.826;2023-04-28T06:36:23;101264.45;;;8.95;59.33
26436;BME280;15351;52.408;16.826;2023-04-28T06:39:14;101256.23;;;9.00;59.05
26436;BME280;15351;52.408;16.826;2023-04-28T06:42:02;101258.52;;;9.14;58.80
26436;BME280;15351;52.408;16.826;2023-04-28T06:44:44;101251.77;;;9.25;58.33
26436;BME280;15351;52.408;16.826;2023-04-28T06:50:59;101250.65;;;9.46;57.77
26436;BME280;15351;52.408;16.826;2023-04-28T06:54:00;101251.09;;;9.60;57.30
26436;BME280;15351;52.408;16.826;2023-04-28T06:56:43;101245.33;;;9.72;56.95
26436;BME280;15351;52.408;16.826;2023-04-28T06:59:11;101243.44;;;9.82;56.43
26436;BME280;15351;52.408;16.826;2023-04-28T07:02:00;101243.42;;;9.91;56.16
26436;BME280;15351;52.408;16.826;2023-04-28T07:04:31;101246.21;;;10.02;55.97
26436;BME280;15351;52.408;16.826;2023-04-28T07:07:03;101246.99;;;10.15;55.71
26436;BME280;15351;52.408;16.826;2023-04-28T07:10:12;101239.91;;;10.28;55.61
26436;BME280;15351;52.408;16.826;2023-04-28T07:12:45;101242.52;;;10.43;55.05
26436;BME280;15351;52.408;16.826;2023-04-28T07:15:13;101236.06;;;10.56;54.32
26436;BME280;15351;52.408;16.826;2023-04-28T07:17:53;101239.66;;;10.72;54.19
26436;BME280;15351;52.408;16.826;2023-04-28T07:21:04;101238.78;;;10.88;53.86
26436;BME280;15351;52.408;16.826;2023-04-28T07:23:42;101230.64;;;11.17;54.54
26436;BME280;15351;52.408;16.826;2023-04-28T07:26:21;101225.23;;;11.55;54.35
26436;BME280;15351;52.408;16.826;2023-04-28T07:32:13;101216.50;;;12.26;53.10
26436;BME280;15351;52.408;16.826;2023-04-28T07:34:53;101209.77;;;12.47;52.02
26436;BME280;15351;52.408;16.826;2023-04-28T07:37:24;101204.68;;;12.61;51.14
26436;BME280;15351;52.408;16.826;2023-04-28T07:40:13;101197.57;;;12.75;50.57
26436;BME280;15351;52.408;16.826;2023-04-28T07:42:42;101176.36;;;12.83;50.52
26436;BME280;15351;52.408;16.826;2023-04-28T07:49:46;101189.07;;;13.15;48.29
26436;BME280;15351;52.408;16.826;2023-04-28T08:23:04;101152.37;;;14.81;44.58
26436;BME280;15351;52.408;16.826;2023-04-28T08:30:46;101134.45;;;15.28;44.37
26436;BME280;15351;52.408;16.826;2023-04-28T08:35:08;101131.05;;;15.45;43.76
26436;BME280;15351;52.408;16.826;2023-04-28T08:49:34;101114.06;;;16.28;43.48
26436;BME280;15351;52.408;16.826;2023-04-28T08:53:10;101105.23;;;16.47;43.38
26436;BME280;15351;52.408;16.826;2023-04-28T09:08:45;101085.45;;;17.00;40.84
26436;BME280;15351;52.408;16.826;2023-04-28T09:16:05;101079.13;;;17.28;40.83
26436;BME280;15351;52.408;16.826;2023-04-28T09:19:54;101074.02;;;17.39;40.55
26436;BME280;15351;52.408;16.826;2023-04-28T09:26:55;101065.31;;;17.66;40.98
26436;BME280;15351;52.408;16.826;2023-04-28T10:46:06;100973.34;;;19.77;37.10
26436;BME280;15351;52.408;16.826;2023-04-28T10:53:35;100961.55;;;19.60;37.00
26436;BME280;15351;52.408;16.826;2023-04-28T11:00:42;100953.91;;;19.61;36.27
26436;BME280;15351;52.408;16.826;2023-04-28T11:16:34;100925.41;;;19.94;37.29
26436;BME280;15351;52.408;16.826;2023-04-28T11:24:24;100921.95;;;20.14;36.95
26436;BME280;15351;52.408;16.826;2023-04-28T11:38:46;100911.38;;;20.35;36.85
26436;BME280;15351;52.408;16.826;2023-04-28T11:41:58;100907.83;;;20.43;36.80
26436;BME280;15351;52.408;16.826;2023-04-28T11:45:44;100904.13;;;20.51;37.12
26436;BME280;15351;52.408;16.826;2023-04-28T11:56:35;100904.44;;;20.32;35.48
26436;BME280;15351;52.408;16.826;2023-04-28T11:59:44;100898.30;;;20.26;35.24
26436;BME280;15351;52.408;16.826;2023-04-28T12:02:57;100891.64;;;20.23;35.69
26436;BME280;15351;52.408;16.826;2023-04-28T12:18:11;100876.16;;;20.27;36.63
26436;BME280;15351;52.408;16.826;2023-04-28T12:25:45;100873.16;;;20.27;35.35
26436;BME280;15351;52.408;16.826;2023-04-28T12:36:22;100867.33;;;19.77;35.34
26436;BME280;15351;52.408;16.826;2023-04-28T12:51:08;100839.13;;;19.53;36.10
26436;BME280;15351;52.408;16.826;2023-04-28T12:58:59;100839.67;;;19.38;35.32
26436;BME280;15351;52.408;16.826;2023-04-28T13:45:36;100770.50;;;19.21;36.25
26436;BME280;15351;52.408;16.826;2023-04-28T13:49:25;100767.69;;;19.09;35.54
26436;BME280;15351;52.408;16.826;2023-04-28T14:05:13;100747.20;;;19.09;36.90
26436;BME280;15351;52.408;16.826;2023-04-28T14:12:03;100731.07;;;19.15;36.03
26436;BME280;15351;52.408;16.826;2023-04-28T14:41:17;100699.63;;;18.67;35.54
26436;BME280;15351;52.408;16.826;2023-04-28T14:44:39;100692.52;;;18.68;35.40
26436;BME280;15351;52.408;16.826;2023-04-28T14:54:21;100682.30;;;18.67;34.80
26436;BME280;15351;52.408;16.826;2023-04-28T14:56:48;100682.95;;;18.69;35.55
26436;BME280;15351;52.408;16.826;2023-04-28T14:59:39;100682.70;;;18.73;35.61
26436;BME280;15351;52.408;16.826;2023-04-28T15:02:08;100682.25;;;18.72;35.93
26436;BME280;15351;52.408;16.826;2023-04-28T15:05:16;100676.30;;;18.63;35.52
26436;BME280;15351;52.408;16.826;2023-04-28T15:11:57;100666.44;;;18.60;36.15
26436;BME280;15351;52.408;16.826;2023-04-28T15:18:20;100661.77;;;18.55;35.76
26436;BME280;15351;52.408;16.826;2023-04-28T15:24:47;100654.05;;;18.45;35.72
26436;BME280;15351;52.408;16.826;2023-04-28T15:27:32;100653.67;;;18.45;35.71
26436;BME280;15351;52.408;16.826;2023-04-28T15:30:07;100651.48;;;18.40;35.64
26436;BME280;15351;52.408;16.826;2023-04-28T15:32:54;100649.81;;;18.34;35.66
26436;BME280;15351;52.408;16.826;2023-04-28T15:35:21;100647.77;;;18.29;35.60
26436;BME280;15351;52.408;16.826;2023-04-28T15:37:50;100650.34;;;18.28;35.87
26436;BME280;15351;52.408;16.826;2023-04-28T15:40:21;100647.45;;;18.25;36.02
26436;BME280;15351;52.408;16.826;2023-04-28T15:42:56;100647.69;;;18.22;35.74
26436;BME280;15351;52.408;16.826;2023-04-28T15:45:44;100645.54;;;18.17;36.14
26436;BME280;15351;52.408;16.826;2023-04-28T15:48:11;100642.23;;;18.12;36.13
26436;BME280;15351;52.408;16.826;2023-04-28T15:50:41;100637.56;;;18.07;36.05
26436;BME280;15351;52.408;16.826;2023-04-28T15:53:13;100633.77;;;18.07;36.72
26436;BME280;15351;52.408;16.826;2023-04-28T15:55:41;100634.83;;;18.07;36.65
26436;BME280;15351;52.408;16.826;2023-04-28T15:58:12;100633.02;;;17.99;36.27
26436;BME280;15351;52.408;16.826;2023-04-28T16:00:39;100630.85;;;17.94;36.31
26436;BME280;15351;52.408;16.826;2023-04-28T16:06:42;100629.63;;;17.91;36.74
26436;BME280;15351;52.408;16.826;2023-04-28T16:18:55;100613.94;;;17.82;37.02
26436;BME280;15351;52.408;16.826;2023-04-28T16:23:11;100616.34;;;17.81;37.33
26436;BME280;15351;52.408;16.826;2023-04-28T17:08:00;100591.12;;;17.40;38.85
26436;BME280;15351;52.408;16.826;2023-04-28T17:27:42;100582.36;;;17.16;40.92
26436;BME280;15351;52.408;16.826;2023-04-28T17:35:41;100578.19;;;17.05;40.82
26436;BME280;15351;52.408;16.826;2023-04-28T17:38:45;100573.66;;;17.02;40.95
26436;BME280;15351;52.408;16.826;2023-04-28T17:41:22;100575.48;;;16.98;41.19
26436;BME280;15351;52.408;16.826;2023-04-28T17:44:18;100568.55;;;16.94;41.32
26436;BME280;15351;52.408;16.826;2023-04-28T17:46:57;100568.38;;;16.89;41.58
26436;BME280;15351;52.408;16.826;2023-04-28T17:49:24;100567.79;;;16.85;41.93
26436;BME280;15351;52.408;16.826;2023-04-28T17:52:08;100570.27;;;16.82;42.44
26436;BME280;15351;52.408;16.826;2023-04-28T17:54:38;100567.56;;;16.77;42.57
26436;BME280;15351;52.408;16.826;2023-04-28T17:57:25;100562.73;;;16.72;43.39
26436;BME280;15351;52.408;16.826;2023-04-28T17:59:56;100565.25;;;16.68;43.81
26436;BME280;15351;52.408;16.826;2023-04-28T18:02:27;100566.60;;;16.62;43.99
26436;BME280;15351;52.408;16.826;2023-04-28T18:05:35;100567.98;;;16.58;44.24
26436;BME280;15351;52.408;16.826;2023-04-28T18:08:05;100568.86;;;16.51;44.35
26436;BME280;15351;52.408;16.826;2023-04-28T18:11:16;100569.08;;;16.47;44.57
26436;BME280;15351;52.408;16.826;2023-04-28T18:19:00;100565.21;;;16.43;44.19
26436;BME280;15351;52.408;16.826;2023-04-28T18:21:28;100565.08;;;16.42;44.02
26436;BME280;15351;52.408;16.826;2023-04-28T18:24:00;100565.38;;;16.40;43.75
26436;BME280;15351;52.408;16.826;2023-04-28T18:26:32;100564.20;;;16.39;43.87
26436;BME280;15351;52.408;16.826;2023-04-28T18:29:35;100562.61;;;16.36;43.74
26436;BME280;15351;52.408;16.826;2023-04-28T18:33:10;100567.85;;;16.34;43.72
26436;BME280;15351;52.408;16.826;2023-04-28T18:36:20;100562.83;;;16.34;43.57
26436;BME280;15351;52.408;16.826;2023-04-28T18:39:11;100564.09;;;16.31;43.66
26436;BME280;15351;52.408;16.826;2023-04-28T18:45:52;100567.77;;;16.28;43.80
26436;BME280;15351;52.408;16.826;2023-04-28T18:49:42;100560.89;;;16.26;43.89
26436;BME280;15351;52.408;16.826;2023-04-28T18:56:39;100565.34;;;16.30;43.40
26436;BME280;15351;52.408;16.826;2023-04-28T19:05:00;100563.89;;;16.22;44.31
26436;BME280;15351;52.408;16.826;2023-04-28T19:07:48;100568.12;;;16.20;44.46
26436;BME280;15351;52.408;16.826;2023-04-28T19:10:41;100568.46;;;16.21;44.22
26436;BME280;15351;52.408;16.826;2023-04-28T19:13:36;100565.74;;;16.18;43.93
26436;BME280;15351;52.408;16.826;2023-04-28T19:16:26;100561.93;;;16.14;44.27
26436;BME280;15351;52.408;16.826;2023-04-28T19:18:53;100567.49;;;16.12;44.38
26436;BME280;15351;52.408;16.826;2023-04-28T19:21:22;100564.83;;;16.11;44.27
26436;BME280;15351;52.408;16.826;2023-04-28T19:23:56;100564.29;;;16.09;44.23
26436;BME280;15351;52.408;16.826;2023-04-28T19:30:25;100564.04;;;16.05;44.07
26436;BME280;15351;52.408;16.826;2023-04-28T19:32:52;100560.93;;;16.02;43.94
26436;BME280;15351;52.408;16.826;2023-04-28T19:35:54;100561.83;;;15.98;43.97
26436;BME280;15351;52.408;16.826;2023-04-28T19:38:25;100561.30;;;15.96;44.09
26436;BME280;15351;52.408;16.826;2023-04-28T19:41:33;100554.89;;;15.93;44.08
26436;BME280;15351;52.408;16.826;2023-04-28T19:44:14;100557.02;;;15.91;44.50
26436;BME280;15351;52.408;16.826;2023-04-28T19:47:06;100553.84;;;15.88;44.10
26436;BME280;15351;52.408;16.826;2023-04-28T19:50:02;100556.06;;;15.86;44.15
26436;BME280;15351;52.408;16.826;2023-04-28T19:53:01;100555.02;;;15.85;43.99
26436;BME280;15351;52.408;16.826;2023-04-28T19:55:58;100550.90;;;15.80;44.24
26436;BME280;15351;52.408;16.826;2023-04-28T19:59:14;100552.92;;;15.79;44.11
26436;BME280;15351;52.408;16.826;2023-04-28T20:02:05;100550.58;;;15.77;44.25
26436;BME280;15351;52.408;16.826;2023-04-28T20:04:38;100552.54;;;15.77;44.36
26436;BME280;15351;52.408;16.826;2023-04-28T20:07:06;100547.77;;;15.77;44.48
26436;BME280;15351;52.408;16.826;2023-04-28T20:09:47;100548.31;;;15.75;44.90
26436;BME280;15351;52.408;16.826;2023-04-28T20:12:13;100546.64;;;15.74;44.99
26436;BME280;15351;52.408;16.826;2023-04-28T20:14:40;100545.26;;;15.72;44.98
26436;BME280;15351;52.408;16.826;2023-04-28T20:17:07;100546.55;;;15.70;44.90
26436;BME280;15351;52.408;16.826;2023-04-28T20:19:36;100547.16;;;15.66;44.92
26436;BME280;15351;52.408;16.826;2023-04-28T20:22:06;100544.13;;;15.63;44.86
26436;BME280;15351;52.408;16.826;2023-04-28T20:24:37;100543.54;;;15.62;44.94
26436;BME280;15351;52.408;16.826;2023-04-28T20:27:29;100545.05;;;15.60;44.60
26436;BME280;15351;52.408;16.826;2023-04-28T20:29:58;100543.67;;;15.58;44.65
26436;BME280;15351;52.408;16.826;2023-04-28T20:35:07;100547.04;;;15.52;44.97
26436;BME280;15351;52.408;16.826;2023-04-28T20:37:57;100547.38;;;15.47;44.80
26436;BME280;15351;52.408;16.826;2023-04-28T20:40:54;100550.05;;;15.45;45.01
26436;BME280;15351;52.408;16.826;2023-04-28T20:44:17;100548.00;;;15.43;45.54
26436;BME280;15351;52.408;16.826;2023-04-28T20:46:59;100542.05;;;15.40;45.45
26436;BME280;15351;52.408;16.826;2023-04-28T20:49:27;100540.79;;;15.38;45.53
26436;BME280;15351;52.408;16.826;2023-04-28T20:52:03;100539.02;;;15.35;45.75
26436;BME280;15351;52.408;16.826;2023-04-28T20:54:31;100539.66;;;15.31;45.76
26436;BME280;15351;52.408;16.826;2023-04-28T20:57:16;100537.68;;;15.27;45.48
26436;BME280;15351;52.408;16.826;2023-04-28T20:59:46;100538.42;;;15.23;45.61
26436;BME280;15351;52.408;16.826;2023-04-28T21:02:14;100533.38;;;15.18;45.98
26436;BME280;15351;52.408;16.826;2023-04-28T21:05:11;100539.54;;;15.20;46.16
26436;BME280;15351;52.408;16.826;2023-04-28T21:07:39;100538.62;;;15.19;46.17
26436;BME280;15351;52.408;16.826;2023-04-28T21:10:10;100537.00;;;15.18;46.25
26436;BME280;15351;52.408;16.826;2023-04-28T21:12:36;100532.80;;;15.15;46.63
26436;BME280;15351;52.408;16.826;2023-04-28T21:15:04;100527.16;;;15.12;46.73
26436;BME280;15351;52.408;16.826;2023-04-28T21:17:32;100523.88;;;15.10;46.77
26436;BME280;15351;52.408;16.826;2023-04-28T21:19:59;100519.90;;;15.07;47.18
26436;BME280;15351;52.408;16.826;2023-04-28T21:22:29;100515.02;;;15.07;47.18
26436;BME280;15351;52.408;16.826;2023-04-28T21:24:55;100510.90;;;15.05;46.74
26436;BME280;15351;52.408;16.826;2023-04-28T21:27:23;100509.53;;;15.04;47.20
26436;BME280;15351;52.408;16.826;2023-04-28T21:30:09;100507.45;;;15.02;47.35
26436;BME280;15351;52.408;16.826;2023-04-28T21:32:40;100506.29;;;14.99;47.32
26436;BME280;15351;52.408;16.826;2023-04-28T21:35:09;100501.07;;;14.96;47.03